Time;durP1;ratioP1;P1;durP2;ratioP2;P2;SDS_P1;SDS_P2;PMS_P1;PMS_P2;Temp;Humidity;BMP_temperature;BMP_pressure;BME280_temperature;BME280_humidity;BME280_pressure;Samples;Min_cycle;Max_cycle;Signal;HPM_P1;HPM_P2
2021/01/22 00:02:00;;;;;;;30.30;18.50;;;333.40;1177.60;;;;;;4917912;29;20084;-72
2021/01/22 00:04:26;;;;;;;14.68;9.18;;;333.50;1152.00;;;;;;4930366;29;20031;-70
2021/01/22 00:06:52;;;;;;;27.92;13.70;;;333.60;1126.40;;;;;;4936610;29;20039;-71
2021/01/22 00:09:19;;;;;;;40.80;24.13;;;333.50;1152.00;;;;;;4936805;29;20024;-72
2021/01/22 00:11:45;;;;;;;55.45;31.40;;;333.30;1203.20;;;;;;4936606;29;20028;-71
2021/01/22 00:14:10;;;;;;;59.30;34.45;;;333.40;1177.60;;;;;;4936400;29;20110;-73
2021/01/22 00:16:36;;;;;;;54.25;32.78;;;333.50;1203.20;;;;;;4932276;29;20118;-72
2021/01/22 00:19:02;;;;;;;63.47;34.45;;;333.40;1203.20;;;;;;4917074;29;20040;-72
2021/01/22 00:21:29;;;;;;;46.13;29.35;;;333.20;1228.80;;;;;;4917352;29;20024;-71
2021/01/22 00:23:55;;;;;;;66.30;37.40;;;333.10;1228.80;;;;;;4916787;29;20024;-74
2021/01/22 00:26:21;;;;;;;62.15;38.00;;;333.10;1254.40;;;;;;4917003;29;20368;-71
2021/01/22 00:28:47;;;;;;;68.13;41.85;;;333.20;1228.80;;;;;;4921800;29;20119;-70
2021/01/22 00:31:13;;;;;;;77.32;45.88;;;333.30;1228.80;;;;;;4916240;29;20407;-70
2021/01/22 00:33:38;;;;;;;89.18;59.45;;;333.20;1228.80;;;;;;4919479;29;20080;-73
2021/01/22 00:36:05;;;;;;;99.18;49.30;;;333.20;1228.80;;;;;;4917103;29;20024;-72
2021/01/22 00:38:31;;;;;;;78.10;43.03;;;333.10;1228.80;;;;;;4916959;29;20064;-75
2021/01/22 00:40:57;;;;;;;72.63;39.35;;;333.20;1228.80;;;;;;4917336;29;20020;-74
2021/01/22 00:43:22;;;;;;;57.17;34.90;;;332.90;1254.40;;;;;;4917113;29;20032;-75
2021/01/22 00:45:49;;;;;;;46.28;30.58;;;332.90;1280.00;;;;;;4917122;29;20099;-74
2021/01/22 00:48:14;;;;;;;51.55;31.35;;;332.80;1280.00;;;;;;4917033;29;20037;-75
2021/01/22 00:50:40;;;;;;;77.00;45.20;;;332.80;1280.00;;;;;;4917406;29;20117;-74
2021/01/22 00:53:05;;;;;;;74.43;44.72;;;307.60;1305.60;;;;;;4917193;29;20037;-71
2021/01/22 00:55:31;;;;;;;136.27;76.53;;;307.90;1280.00;;;;;;4917049;29;20044;-72
2021/01/22 00:57:57;;;;;;;184.18;101.15;;;308.10;1254.40;;;;;;4917450;29;20091;-74
2021/01/22 01:00:23;;;;;;;96.10;53.60;;;308.10;1254.40;;;;;;4917415;29;20029;-73
2021/01/22 01:02:48;;;;;;;106.68;61.42;;;307.80;1305.60;;;;;;4917509;29;20121;-72
2021/01/22 01:05:14;;;;;;;93.53;55.78;;;308.10;1280.00;;;;;;4917532;29;20024;-73
2021/01/22 01:07:40;;;;;;;86.63;54.92;;;308.00;1280.00;;;;;;4917208;29;20088;-72
2021/01/22 01:10:07;;;;;;;80.47;50.92;;;332.80;1305.60;;;;;;4917036;29;20030;-74
2021/01/22 01:12:33;;;;;;;86.45;53.78;;;308.00;1305.60;;;;;;4917368;29;20042;-68
2021/01/22 01:14:58;;;;;;;89.35;54.40;;;307.70;1331.20;;;;;;4917435;29;20106;-74
2021/01/22 01:17:24;;;;;;;76.93;47.85;;;307.70;1356.80;;;;;;4917436;29;20087;-73
2021/01/22 01:19:50;;;;;;;83.78;50.63;;;307.80;1331.20;;;;;;4917233;29;20032;-74
2021/01/22 01:22:15;;;;;;;77.85;49.00;;;307.60;1356.80;;;;;;4917111;29;20027;-73
2021/01/22 01:24:41;;;;;;;105.50;60.00;;;307.70;1356.80;;;;;;4916810;29;20047;-67
2021/01/22 01:27:07;;;;;;;51.03;26.77;;;307.80;1331.20;;;;;;4917114;29;20060;-73
2021/01/22 01:29:32;;;;;;;33.97;17.38;;;308.00;1280.00;;;;;;4917012;29;20020;-68
2021/01/22 01:31:58;;;;;;;16.55;9.65;;;308.10;1254.40;;;;;;4917126;29;20041;-67
2021/01/22 01:34:24;;;;;;;16.55;9.57;;;332.80;1254.40;;;;;;4916983;29;20071;-75
2021/01/22 01:36:49;;;;;;;46.85;24.90;;;332.90;1254.40;;;;;;4916978;29;20032;-71
2021/01/22 01:39:15;;;;;;;14.85;7.82;;;333.00;1228.80;;;;;;4916756;29;20071;-74
2021/01/22 01:41:41;;;;;;;23.20;14.05;;;333.00;1228.80;;;;;;4917365;29;20035;-77
2021/01/22 01:44:06;;;;;;;15.63;8.25;;;333.10;1228.80;;;;;;4920653;29;20039;-70
2021/01/22 01:46:32;;;;;;;8.80;4.60;;;333.10;1228.80;;;;;;4920754;29;20036;-67
2021/01/22 01:48:59;;;;;;;9.30;4.88;;;333.10;1228.80;;;;;;4920801;29;20028;-72
2021/01/22 01:51:25;;;;;;;26.10;11.68;;;333.10;1228.80;;;;;;4920595;29;20032;-76
2021/01/22 01:53:51;;;;;;;19.15;10.45;;;333.10;1228.80;;;;;;4920406;29;20531;-69
2021/01/22 01:56:17;;;;;;;24.80;11.90;;;333.30;1203.20;;;;;;4920259;29;20140;-74
2021/01/22 01:58:43;;;;;;;23.65;9.82;;;333.30;1203.20;;;;;;4920519;29;20048;-68
2021/01/22 02:01:10;;;;;;;12.65;6.97;;;333.30;1203.20;;;;;;4920628;29;20024;-71
2021/01/22 02:03:36;;;;;;;36.80;15.20;;;333.20;1203.20;;;;;;4920461;29;20025;-69
2021/01/22 02:06:04;;;;;;;15.65;8.30;;;333.30;1203.20;;;;;;4920354;29;20076;-71
2021/01/22 02:08:30;;;;;;;53.58;25.92;;;333.30;1177.60;;;;;;4920225;29;20028;-70
2021/01/22 02:11:00;;;;;;;78.63;40.58;;;333.50;1177.60;;;;;;4920342;29;20052;-74
2021/01/22 02:13:27;;;;;;;22.95;13.90;;;333.60;1177.60;;;;;;4920362;29;20024;-74
2021/01/22 02:15:54;;;;;;;22.50;12.32;;;333.40;1203.20;;;;;;4920194;29;20487;-69
2021/01/22 02:18:20;;;;;;;40.72;20.17;;;333.40;1203.20;;;;;;4920069;29;20071;-70
2021/01/22 02:20:55;;;;;;;15.05;8.95;;;333.40;1228.80;;;;;;4920168;29;20454;-75
2021/01/22 02:23:24;;;;;;;29.55;15.15;;;333.40;1203.20;;;;;;4920097;29;20368;-75
2021/01/22 02:25:51;;;;;;;46.00;22.60;;;333.40;1203.20;;;;;;4919824;29;20119;-67
2021/01/22 02:28:17;;;;;;;80.95;38.95;;;333.30;1203.20;;;;;;4920090;29;20558;-75
2021/01/22 02:30:44;;;;;;;68.38;35.88;;;333.40;1203.20;;;;;;4920124;29;20028;-75
2021/01/22 02:33:14;;;;;;;52.08;26.05;;;333.40;1203.20;;;;;;4919880;29;20167;-74
2021/01/22 02:35:40;;;;;;;33.53;16.70;;;333.40;1203.20;;;;;;4920017;29;20107;-74
2021/01/22 02:38:08;;;;;;;19.90;9.98;;;333.20;1254.40;;;;;;4919671;29;20086;-74
2021/01/22 02:40:36;;;;;;;16.33;9.32;;;333.20;1228.80;;;;;;4919580;29;20083;-70
2021/01/22 02:43:05;;;;;;;62.78;33.10;;;333.30;1228.80;;;;;;4919874;29;20043;-74
2021/01/22 02:45:31;;;;;;;69.45;36.80;;;333.40;1228.80;;;;;;4919622;29;20057;-71
2021/01/22 02:47:57;;;;;;;71.32;41.67;;;308.10;1280.00;;;;;;4919737;29;20384;-73
2021/01/22 02:50:33;;;;;;;72.20;40.58;;;307.70;1331.20;;;;;;4919518;29;20499;-73
2021/01/22 02:53:04;;;;;;;79.65;48.03;;;307.60;1356.80;;;;;;4919070;29;20037;-73
2021/01/22 02:55:30;;;;;;;82.50;47.17;;;307.50;1382.40;;;;;;4919078;29;20175;-74
2021/01/22 02:58:28;;;;;;;83.65;49.10;;;307.80;1356.80;;;;;;4919593;29;20072;-74
2021/01/22 03:00:59;;;;;;;90.93;54.30;;;307.60;1356.80;;;;;;4918112;29;20368;-71
2021/01/22 03:03:48;;;;;;;106.10;61.55;;;307.80;1356.80;;;;;;4919231;29;20020;-68
2021/01/22 03:06:31;;;;;;;116.03;69.10;;;307.90;1331.20;;;;;;4933829;29;20501;-72
2021/01/22 03:09:00;;;;;;;104.40;61.72;;;307.90;1331.20;;;;;;4919159;29;20111;-72
2021/01/22 03:11:28;;;;;;;111.18;64.07;;;282.50;1382.40;;;;;;4919260;29;20066;-72
2021/01/22 03:13:54;;;;;;;114.03;68.30;;;307.30;1408.00;;;;;;4919077;29;20141;-72
2021/01/22 03:16:20;;;;;;;104.20;62.33;;;282.40;1408.00;;;;;;4919041;29;20024;-70
2021/01/22 03:19:04;;;;;;;105.65;63.80;;;282.10;1433.60;;;;;;4919008;29;20039;-71
2021/01/22 03:21:31;;;;;;;138.73;89.47;;;282.40;1408.00;;;;;;4919120;29;20037;-72
2021/01/22 03:23:59;;;;;;;99.20;57.08;;;282.30;1408.00;;;;;;4918986;29;20032;-73
2021/01/22 03:26:25;;;;;;;97.10;60.92;;;282.40;1382.40;;;;;;4918851;29;20079;-73
2021/01/22 03:28:51;;;;;;;103.80;62.10;;;282.30;1408.00;;;;;;4919023;29;20435;-73
2021/01/22 03:31:17;;;;;;;98.95;60.17;;;282.50;1382.40;;;;;;4919219;29;20384;-73
2021/01/22 03:33:45;;;;;;;70.38;40.17;;;282.40;1408.00;;;;;;4919069;29;20059;-72
2021/01/22 03:36:11;;;;;;;37.47;21.38;;;282.10;1408.00;;;;;;4918784;29;20032;-72
2021/01/22 03:38:37;;;;;;;21.02;11.25;;;282.40;1356.80;;;;;;4918673;29;20044;-72
2021/01/22 03:41:02;;;;;;;18.02;9.88;;;307.30;1356.80;;;;;;4918598;29;20059;-68
2021/01/22 03:43:28;;;;;;;16.33;9.32;;;307.30;1331.20;;;;;;4918646;29;20028;-73
2021/01/22 03:45:54;;;;;;;42.28;24.10;;;307.50;1305.60;;;;;;4918593;29;20025;-70
2021/01/22 03:48:20;;;;;;;77.20;43.05;;;307.70;1305.60;;;;;;4918511;29;20100;-72
2021/01/22 03:50:45;;;;;;;86.30;52.28;;;307.30;1356.80;;;;;;4918493;29;20036;-71
2021/01/22 03:53:11;;;;;;;86.18;50.58;;;307.20;1356.80;;;;;;4918856;29;20028;-74
2021/01/22 03:55:37;;;;;;;79.65;47.85;;;281.90;1433.60;;;;;;4918799;29;20060;-73
2021/01/22 03:58:04;;;;;;;79.93;48.17;;;282.00;1408.00;;;;;;4918340;29;20040;-73
2021/01/22 04:00:33;;;;;;;83.68;53.45;;;281.80;1433.60;;;;;;4918773;29;20034;-74
2021/01/22 04:02:58;;;;;;;66.65;39.97;;;281.90;1408.00;;;;;;4918782;29;20029;-72
2021/01/22 04:05:24;;;;;;;57.75;37.75;;;256.90;1433.60;;;;;;4917846;29;20020;-72
2021/01/22 04:07:50;;;;;;;51.17;30.60;;;281.60;1459.20;;;;;;4918225;29;20035;-73
2021/01/22 04:10:16;;;;;;;54.83;33.20;;;281.60;1459.20;;;;;;4918026;29;20024;-73
2021/01/22 04:12:42;;;;;;;69.90;39.45;;;281.70;1433.60;;;;;;4918002;29;20024;-73
2021/01/22 04:15:08;;;;;;;72.55;43.10;;;281.90;1433.60;;;;;;4918285;29;20047;-72
2021/01/22 04:17:34;;;;;;;60.40;36.75;;;282.00;1408.00;;;;;;4918083;29;20367;-71
2021/01/22 04:20:00;;;;;;;68.05;42.90;;;281.70;1433.60;;;;;;4918064;29;20079;-73
2021/01/22 04:22:26;;;;;;;82.28;47.80;;;256.90;1433.60;;;;;;4918124;29;20026;-72
2021/01/22 04:24:52;;;;;;;85.97;52.78;;;256.40;1484.80;;;;;;4917646;29;20048;-72
2021/01/22 04:27:17;;;;;;;81.57;51.40;;;256.80;1459.20;;;;;;4917883;29;20032;-72
2021/01/22 04:29:43;;;;;;;81.28;51.50;;;256.80;1433.60;;;;;;4917875;29;20081;-71
2021/01/22 04:32:08;;;;;;;81.70;51.95;;;256.80;1433.60;;;;;;4918047;29;20032;-72
2021/01/22 04:34:34;;;;;;;80.93;49.88;;;256.70;1459.20;;;;;;4917746;29;20028;-71
2021/01/22 04:37:01;;;;;;;74.43;45.92;;;256.50;1484.80;;;;;;4917711;29;20028;-71
2021/01/22 04:39:26;;;;;;;72.03;44.80;;;256.60;1484.80;;;;;;4917516;29;20487;-75
2021/01/22 04:41:53;;;;;;;73.63;46.38;;;256.60;1459.20;;;;;;4917454;29;20040;-73
2021/01/22 04:44:19;;;;;;;77.82;49.53;;;256.70;1484.80;;;;;;4917492;29;20019;-74
2021/01/22 04:46:45;;;;;;;73.68;46.08;;;256.60;1484.80;;;;;;4917570;29;20030;-75
2021/01/22 04:49:11;;;;;;;75.22;43.60;;;256.50;1484.80;;;;;;4917551;29;20036;-72
2021/01/22 04:51:37;;;;;;;73.85;53.10;;;256.50;1484.80;;;;;;4917613;29;20079;-78
2021/01/22 04:54:08;;;;;;;59.95;39.78;;;256.00;1510.40;;;;;;4917505;29;20387;-71
2021/01/22 04:56:38;;;;;;;78.53;47.57;;;231.20;1536.00;;;;;;4917005;29;20135;-72
2021/01/22 04:59:09;;;;;;;80.32;54.75;;;231.30;1536.00;;;;;;4916946;29;20519;-70
2021/01/22 05:01:35;;;;;;;93.35;59.00;;;256.20;1510.40;;;;;;4917059;29;20071;-70
2021/01/22 05:04:01;;;;;;;109.20;65.80;;;256.30;1484.80;;;;;;4917460;29;20035;-70
2021/01/22 05:06:28;;;;;;;97.03;63.50;;;256.40;1484.80;;;;;;4917262;29;20020;-70
2021/01/22 05:08:54;;;;;;;111.80;71.15;;;256.60;1459.20;;;;;;4917068;29;20024;-72
2021/01/22 05:11:21;;;;;;;114.00;72.95;;;256.30;1510.40;;;;;;4917040;29;20158;-72
2021/01/22 05:13:47;;;;;;;126.20;82.05;;;256.20;1536.00;;;;;;4916956;29;20108;-72
2021/01/22 05:16:14;;;;;;;114.03;74.55;;;256.20;1510.40;;;;;;4917293;29;20107;-72
2021/01/22 05:18:40;;;;;;;115.50;72.72;;;256.20;1510.40;;;;;;4916377;29;20028;-67
2021/01/22 05:21:11;;;;;;;102.60;68.35;;;256.10;1536.00;;;;;;4916705;29;20464;-69
2021/01/22 05:23:38;;;;;;;105.35;67.07;;;256.20;1510.40;;;;;;4916708;29;20133;-72
2021/01/22 05:26:16;;;;;;;112.85;72.40;;;256.30;1510.40;;;;;;4916342;29;20414;-70
2021/01/22 05:28:42;;;;;;;105.10;65.32;;;256.30;1510.40;;;;;;4916514;29;20062;-70
2021/01/22 05:31:10;;;;;;;106.18;69.93;;;256.20;1536.00;;;;;;4916590;29;20526;-70
2021/01/22 05:33:38;;;;;;;112.35;73.78;;;256.10;1536.00;;;;;;4916891;29;20116;-71
2021/01/22 05:36:27;;;;;;;99.20;64.10;;;256.00;1561.60;;;;;;4916678;29;20044;-72
2021/01/22 05:38:55;;;;;;;107.35;68.38;;;256.30;1510.40;;;;;;4916235;29;20063;-68
2021/01/22 05:41:21;;;;;;;97.65;65.13;;;256.50;1484.80;;;;;;4916592;29;20029;-72
2021/01/22 05:43:47;;;;;;;199.02;108.07;;;231.20;1536.00;;;;;;4917205;29;20439;-72
2021/01/22 05:46:13;;;;;;;223.32;120.43;;;231.10;1536.00;;;;;;4916853;29;20033;-72
2021/01/22 05:48:39;;;;;;;298.02;162.18;;;231.00;1561.60;;;;;;4916859;29;20060;-71
2021/01/22 05:51:05;;;;;;;209.60;132.15;;;231.30;1536.00;;;;;;4917371;29;20020;-71
2021/01/22 05:53:31;;;;;;;339.85;183.15;;;231.10;1561.60;;;;;;4916795;29;20028;-71
2021/01/22 05:56:19;;;;;;;225.00;139.35;;;231.10;1561.60;;;;;;4916668;29;20048;-72
2021/01/22 05:58:46;;;;;;;224.07;142.32;;;231.10;1561.60;;;;;;4916781;29;20044;-71
2021/01/22 06:01:14;;;;;;;210.23;130.15;;;231.20;1536.00;;;;;;4916848;29;20052;-72
2021/01/22 06:03:43;;;;;;;197.13;124.55;;;256.10;1536.00;;;;;;4916694;29;20107;-69
2021/01/22 06:06:10;;;;;;;202.98;126.50;;;231.10;1561.60;;;;;;4916748;29;20031;-72
2021/01/22 06:08:55;;;;;;;185.88;126.38;;;231.30;1536.00;;;;;;4916650;29;20031;-68
2021/01/22 06:11:31;;;;;;;343.10;193.27;;;231.00;1561.60;;;;;;4916588;29;20164;-71
2021/01/22 06:14:04;;;;;;;193.98;128.20;;;231.30;1561.60;;;;;;4916605;29;20510;-71
2021/01/22 06:16:30;;;;;;;208.50;129.57;;;231.10;1561.60;;;;;;4916574;29;20153;-71
2021/01/22 06:19:04;;;;;;;195.60;126.18;;;256.00;1510.40;;;;;;4916313;29;20115;-71
2021/01/22 06:21:32;;;;;;;222.82;137.43;;;231.10;1536.00;;;;;;4916445;29;20050;-73
2021/01/22 06:24:00;;;;;;;241.23;153.82;;;231.20;1536.00;;;;;;4916459;29;20043;-74
2021/01/22 06:26:27;;;;;;;228.73;148.77;;;231.00;1561.60;;;;;;4916465;29;20052;-72
2021/01/22 06:28:53;;;;;;;274.17;171.32;;;231.10;1561.60;;;;;;4918150;29;20039;-70
2021/01/22 06:31:19;;;;;;;340.85;244.00;;;231.20;1536.00;;;;;;4919876;29;20067;-71
2021/01/22 06:33:48;;;;;;;238.32;155.73;;;230.70;1587.20;;;;;;4919903;29;20103;-71
2021/01/22 06:36:15;;;;;;;266.70;186.45;;;230.90;1587.20;;;;;;4918423;29;20387;-71
2021/01/22 06:38:41;;;;;;;243.75;159.50;;;231.00;1561.60;;;;;;4919590;29;20040;-69
2021/01/22 06:41:08;;;;;;;259.58;183.75;;;231.00;1561.60;;;;;;4919502;29;20028;-70
2021/01/22 06:43:36;;;;;;;353.10;226.18;;;231.20;1536.00;;;;;;4919622;29;20028;-72
2021/01/22 06:46:07;;;;;;;359.08;235.10;;;230.80;1612.80;;;;;;4919406;29;20021;-68
2021/01/22 06:49:01;;;;;;;289.98;186.95;;;231.00;1612.80;;;;;;4919387;29;20028;-69
2021/01/22 06:51:30;;;;;;;282.63;179.48;;;231.20;1587.20;;;;;;4919665;29;20391;-69
2021/01/22 06:54:17;;;;;;;259.50;165.80;;;256.00;1561.60;;;;;;4919376;29;20032;-72
2021/01/22 06:56:54;;;;;;;266.02;176.10;;;231.20;1561.60;;;;;;4919014;29;20205;-71
2021/01/22 06:59:20;;;;;;;291.80;190.65;;;231.00;1587.20;;;;;;4919141;29;20391;-68
2021/01/22 07:01:50;;;;;;;344.30;236.07;;;231.20;1587.20;;;;;;4919330;29;20175;-73
2021/01/22 07:04:31;;;;;;;330.23;222.38;;;231.10;1587.20;;;;;;4919237;29;20522;-72
2021/01/22 07:07:07;;;;;;;395.88;256.38;;;231.10;1587.20;;;;;;4919178;29;20075;-72
2021/01/22 07:09:43;;;;;;;431.35;293.70;;;256.20;1561.60;;;;;;4919122;29;20484;-72
2021/01/22 07:12:10;;;;;;;493.23;346.17;;;231.20;1587.20;;;;;;4933575;29;20039;-72
2021/01/22 07:14:47;;;;;;;478.05;329.45;;;256.20;1561.60;;;;;;4919364;29;20111;-72
2021/01/22 07:17:15;;;;;;;370.15;254.00;;;256.50;1536.00;;;;;;4919072;29;20044;-71
2021/01/22 07:20:01;;;;;;;372.05;262.58;;;256.20;1561.60;;;;;;4918781;29;20071;-72
2021/01/22 07:22:30;;;;;;;450.60;322.77;;;256.50;1536.00;;;;;;4935721;29;20066;-73
2021/01/22 07:25:01;;;;;;;429.23;302.73;;;256.40;1561.60;;;;;;4935736;29;20123;-72
2021/01/22 07:27:40;;;;;;;416.70;285.38;;;256.50;1561.60;;;;;;4935774;29;20117;-74
2021/01/22 07:30:14;;;;;;;400.13;276.88;;;256.90;1536.00;;;;;;4935583;29;20039;-71
2021/01/22 07:32:41;;;;;;;393.33;264.30;;;256.70;1561.60;;;;;;4935672;29;20463;-70
2021/01/22 07:35:09;;;;;;;423.02;308.75;;;281.70;1536.00;;;;;;4935624;29;20035;-71
2021/01/22 07:37:37;;;;;;;373.67;259.77;;;256.70;1561.60;;;;;;4935568;29;20055;-72
2021/01/22 07:40:07;;;;;;;365.05;258.75;;;256.50;1561.60;;;;;;4934419;29;20410;-72
2021/01/22 07:42:32;;;;;;;388.85;277.00;;;256.70;1561.60;;;;;;4935506;29;20042;-69
2021/01/22 07:45:24;;;;;;;405.67;291.90;;;281.60;1561.60;;;;;;4935331;29;20391;-71
2021/01/22 07:47:50;;;;;;;442.90;318.70;;;256.90;1536.00;;;;;;4935312;29;20036;-72
2021/01/22 07:50:19;;;;;;;427.13;292.30;;;256.90;1536.00;;;;;;4935615;29;20038;-73
2021/01/22 07:52:47;;;;;;;426.15;292.20;;;281.90;1510.40;;;;;;4935391;29;20510;-73
2021/01/22 07:55:19;;;;;;;378.58;254.82;;;282.30;1459.20;;;;;;4934961;29;20051;-74
2021/01/22 07:57:45;;;;;;;404.77;269.10;;;307.20;1459.20;;;;;;4935302;29;20275;-71
2021/01/22 08:00:13;;;;;;;422.60;289.25;;;307.30;1459.20;;;;;;4922277;29;20068;-74
2021/01/22 08:02:39;;;;;;;415.70;283.92;;;307.20;1484.80;;;;;;4933004;29;20032;-74
2021/01/22 08:05:09;;;;;;;441.23;310.92;;;307.60;1459.20;;;;;;4918299;29;20398;-71
2021/01/22 08:07:40;;;;;;;579.83;416.42;;;307.80;1459.20;;;;;;4918132;29;20024;-73
2021/01/22 08:10:11;;;;;;;441.38;324.33;;;308.00;1433.60;;;;;;4917991;29;20076;-74
2021/01/22 08:12:38;;;;;;;401.83;276.70;;;307.70;1459.20;;;;;;4918014;29;20131;-74
2021/01/22 08:15:17;;;;;;;396.00;276.92;;;307.90;1408.00;;;;;;4918001;29;20020;-70
2021/01/22 08:17:46;;;;;;;454.35;327.92;;;332.90;1408.00;;;;;;4917812;29;20025;-74
2021/01/22 08:20:14;;;;;;;423.83;302.65;;;333.10;1408.00;;;;;;4917858;29;20069;-74
2021/01/22 08:22:40;;;;;;;415.58;289.48;;;332.90;1433.60;;;;;;4917677;29;20471;-71
2021/01/22 08:25:06;;;;;;;472.83;329.25;;;333.30;1408.00;;;;;;4917896;29;20040;-70
2021/01/22 08:27:32;;;;;;;400.55;272.52;;;333.60;1382.40;;;;;;4917641;29;20086;-72
2021/01/22 08:29:59;;;;;;;318.10;218.32;;;358.50;1331.20;;;;;;4917850;29;20032;-69
2021/01/22 08:32:25;;;;;;;273.48;183.68;;;358.70;1331.20;;;;;;4917671;29;20056;-74
2021/01/22 08:34:51;;;;;;;238.40;164.38;;;359.00;1305.60;;;;;;4917611;29;20031;-70
2021/01/22 08:37:19;;;;;;;169.45;116.80;;;359.10;1305.60;;;;;;4916185;29;20083;-70
2021/01/22 08:39:51;;;;;;;108.72;77.78;;;384.00;1254.40;;;;;;4917550;29;20036;-69
2021/01/22 08:42:18;;;;;;;92.07;61.88;;;384.30;1203.20;;;;;;4917155;29;20515;-69
2021/01/22 08:44:57;;;;;;;77.82;59.30;;;384.60;1177.60;;;;;;4917319;29;20032;-71
2021/01/22 08:47:23;;;;;;;95.40;78.90;;;384.80;1152.00;;;;;;4917321;29;20024;-71
2021/01/22 08:49:56;;;;;;;49.40;39.58;;;409.70;1152.00;;;;;;4917426;29;20080;-72
2021/01/22 08:52:22;;;;;;;39.50;25.63;;;409.90;1126.40;;;;;;4931642;29;20038;-72
2021/01/22 08:54:51;;;;;;;32.75;21.52;;;410.00;1100.80;;;;;;4917407;29;20024;-72
2021/01/22 08:57:17;;;;;;;22.15;13.13;;;410.20;1075.20;;;;;;4916935;29;20127;-72
2021/01/22 08:59:47;;;;;;;24.52;17.73;;;410.30;1075.20;;;;;;4917068;29;20128;-71
2021/01/22 09:02:12;;;;;;;16.58;10.55;;;410.50;1075.20;;;;;;4917200;29;20402;-70
2021/01/22 09:04:38;;;;;;;12.27;8.20;;;410.50;1049.60;;;;;;4916904;29;20032;-72
2021/01/22 09:07:14;;;;;;;18.60;11.65;;;435.20;1049.60;;;;;;4917298;29;20048;-70
2021/01/22 09:09:49;;;;;;;15.90;8.75;;;435.20;1049.60;;;;;;4917024;29;20020;-70
2021/01/22 09:12:24;;;;;;;35.50;23.83;;;435.20;1049.60;;;;;;4916963;29;20055;-69
2021/01/22 09:15:02;;;;;;;62.95;34.15;;;435.20;1049.60;;;;;;4917360;29;20062;-72
2021/01/22 09:17:36;;;;;;;44.28;24.88;;;435.30;1049.60;;;;;;4917230;29;20062;-69
2021/01/22 09:20:28;;;;;;;31.58;19.33;;;435.40;1024.00;;;;;;4917175;29;20115;-70
2021/01/22 09:22:55;;;;;;;25.15;12.73;;;435.70;1024.00;;;;;;4918729;29;20115;-71
2021/01/22 09:25:26;;;;;;;29.50;16.33;;;435.60;998.40;;;;;;4917196;29;20039;-72
2021/01/22 09:27:52;;;;;;;41.03;24.77;;;435.70;998.40;;;;;;4916802;29;20033;-72
2021/01/22 09:30:21;;;;;;;19.20;12.32;;;435.70;1024.00;;;;;;4917276;29;20378;-69
2021/01/22 09:32:51;;;;;;;27.77;16.15;;;435.60;998.40;;;;;;4917021;29;20059;-71
2021/01/22 09:35:18;;;;;;;23.17;12.80;;;435.40;1024.00;;;;;;4916801;29;20450;-70
2021/01/22 09:37:44;;;;;;;19.58;13.13;;;435.40;1024.00;;;;;;4917162;29;20059;-69
2021/01/22 09:40:11;;;;;;;18.92;12.48;;;435.50;1024.00;;;;;;4916761;29;20064;-71
2021/01/22 09:42:37;;;;;;;42.40;28.20;;;435.50;998.40;;;;;;4916570;29;20024;-73
2021/01/22 09:45:05;;;;;;;40.95;26.48;;;435.70;998.40;;;;;;4916718;29;20036;-73
2021/01/22 09:47:31;;;;;;;38.35;27.95;;;435.80;998.40;;;;;;4915675;29;20483;-72
2021/01/22 09:49:56;;;;;;;19.65;13.27;;;435.90;998.40;;;;;;4916917;29;20036;-72
2021/01/22 09:52:22;;;;;;;22.25;13.18;;;460.90;972.80;;;;;;4916644;29;20111;-72
2021/01/22 09:54:48;;;;;;;11.20;7.35;;;461.20;972.80;;;;;;4916768;29;20032;-72
2021/01/22 09:57:14;;;;;;;11.23;8.52;;;461.20;947.20;;;;;;4916295;29;20060;-72
2021/01/22 09:59:40;;;;;;;18.98;11.98;;;461.40;947.20;;;;;;4916693;29;20036;-70
2021/01/22 10:02:06;;;;;;;21.65;12.90;;;461.60;947.20;;;;;;4916803;29;20024;-70
2021/01/22 10:04:34;;;;;;;17.50;10.23;;;461.60;947.20;;;;;;4919538;29;20035;-69
2021/01/22 10:07:00;;;;;;;25.50;15.07;;;461.50;921.60;;;;;;4920170;29;20024;-73
2021/01/22 10:09:26;;;;;;;16.95;9.80;;;461.40;947.20;;;;;;4920131;29;20032;-73
2021/01/22 10:11:52;;;;;;;11.48;7.55;;;461.20;972.80;;;;;;4919728;29;20047;-73
2021/01/22 10:14:17;;;;;;;14.55;9.55;;;461.10;972.80;;;;;;4920044;29;20035;-73
2021/01/22 10:16:43;;;;;;;28.98;19.15;;;460.80;998.40;;;;;;4920188;29;20025;-72
2021/01/22 10:19:08;;;;;;;24.38;12.95;;;460.80;998.40;;;;;;4919985;29;20509;-72
2021/01/22 10:21:34;;;;;;;15.38;9.52;;;460.80;998.40;;;;;;4919840;29;20034;-69
2021/01/22 10:24:00;;;;;;;13.23;8.63;;;460.80;998.40;;;;;;4919897;29;20480;-72
2021/01/22 10:26:26;;;;;;;16.73;9.25;;;436.10;972.80;;;;;;4919822;29;20104;-72
2021/01/22 10:28:52;;;;;;;15.85;9.90;;;436.10;972.80;;;;;;4919887;29;20036;-72
2021/01/22 10:31:19;;;;;;;12.10;7.45;;;460.80;998.40;;;;;;4920030;29;20035;-73
2021/01/22 10:33:45;;;;;;;16.42;11.00;;;461.00;972.80;;;;;;4934344;29;20040;-69
2021/01/22 10:36:11;;;;;;;13.65;8.43;;;460.90;998.40;;;;;;4919782;29;20059;-72
2021/01/22 10:38:37;;;;;;;15.35;9.50;;;460.80;998.40;;;;;;4919694;29;20087;-72
2021/01/22 10:41:03;;;;;;;16.73;10.88;;;460.80;998.40;;;;;;4919561;29;20036;-70
2021/01/22 10:43:29;;;;;;;20.88;12.75;;;461.10;998.40;;;;;;4919242;29;20032;-72
2021/01/22 10:45:55;;;;;;;14.32;9.18;;;461.50;972.80;;;;;;4919120;29;20027;-72
2021/01/22 10:48:21;;;;;;;32.33;17.92;;;486.50;921.60;;;;;;4919251;29;20031;-72
2021/01/22 10:50:48;;;;;;;33.25;16.33;;;512.20;870.40;;;;;;4918551;29;20036;-73
2021/01/22 10:53:14;;;;;;;24.13;14.77;;;538.30;793.60;;;;;;4919230;29;20032;-70
2021/01/22 10:55:39;;;;;;;19.73;10.73;;;589.70;716.80;;;;;;4919212;29;20044;-70
2021/01/22 10:58:05;;;;;;;48.03;24.48;;;614.90;665.60;;;;;;4919023;29;20083;-73
2021/01/22 11:00:34;;;;;;;56.95;35.05;;;640.40;640.00;;;;;;4919117;29;20115;-72
2021/01/22 11:03:01;;;;;;;40.58;22.83;;;665.90;614.40;;;;;;4919178;29;20032;-70
2021/01/22 11:05:27;;;;;;;28.63;16.92;;;665.80;640.00;;;;;;4919198;29;20439;-73
2021/01/22 11:07:53;;;;;;;25.25;12.70;;;691.70;563.20;;;;;;4919326;29;20028;-72
2021/01/22 11:10:19;;;;;;;22.45;14.27;;;717.10;537.60;;;;;;4919097;29;20108;-73
2021/01/22 11:12:46;;;;;;;36.38;22.98;;;716.80;563.20;;;;;;4918681;29;20028;-73
2021/01/22 11:15:12;;;;;;;46.47;15.40;;;666.50;588.80;;;;;;4919044;29;20028;-73
2021/01/22 11:17:37;;;;;;;44.38;14.32;;;665.60;640.00;;;;;;4919066;29;20079;-73
2021/01/22 11:20:04;;;;;;;33.35;18.38;;;640.20;640.00;;;;;;4918786;29;20039;-71
2021/01/22 11:22:31;;;;;;;43.75;20.88;;;615.10;665.60;;;;;;4918979;29;20111;-73
2021/01/22 11:24:57;;;;;;;44.75;16.85;;;614.60;691.20;;;;;;4919009;29;20032;-70
2021/01/22 11:27:23;;;;;;;64.15;18.52;;;589.70;716.80;;;;;;4918665;29;20063;-73
2021/01/22 11:29:49;;;;;;;69.10;24.25;;;589.00;742.40;;;;;;4918604;29;20089;-72
2021/01/22 11:32:15;;;;;;;47.25;29.52;;;564.00;768.00;;;;;;4918513;29;20035;-73
2021/01/22 11:34:41;;;;;;;45.03;27.77;;;563.60;793.60;;;;;;4918568;29;20036;-70
2021/01/22 11:37:06;;;;;;;43.85;28.23;;;563.20;819.20;;;;;;4918327;29;20024;-72
2021/01/22 11:39:35;;;;;;;29.58;19.63;;;563.20;793.60;;;;;;4918484;29;20054;-73
2021/01/22 11:42:04;;;;;;;58.22;35.10;;;563.20;793.60;;;;;;4918376;29;20498;-73
2021/01/22 11:44:30;;;;;;;11.43;6.45;;;538.30;793.60;;;;;;4918593;29;20475;-73
2021/01/22 11:46:56;;;;;;;7.20;4.93;;;538.00;793.60;;;;;;4918485;29;20031;-73
2021/01/22 11:49:22;;;;;;;7.80;4.50;;;512.90;793.60;;;;;;4918438;29;20032;-72
2021/01/22 11:51:48;;;;;;;14.00;7.72;;;512.90;793.60;;;;;;4918266;29;20099;-73
2021/01/22 11:54:13;;;;;;;18.48;10.05;;;512.80;819.20;;;;;;4918032;29;20051;-73
2021/01/22 11:56:39;;;;;;;15.85;8.98;;;512.70;819.20;;;;;;4917952;29;20066;-73
2021/01/22 11:59:08;;;;;;;17.60;10.27;;;512.70;819.20;;;;;;4918087;29;20043;-73
2021/01/22 12:01:34;;;;;;;9.45;4.88;;;512.80;819.20;;;;;;4918154;29;20112;-73